createdAt,value
2017-11-09T00:01:14.424Z,55.17
2017-11-09T00:04:30.124Z,41.13
2017-11-09T00:07:41.249Z,48.40
2017-11-09T00:10:51.500Z,47.47
2017-11-09T00:14:01.978Z,43.22
2017-11-09T00:17:12.033Z,43.20
2017-11-09T00:20:22.345Z,58.95
2017-11-09T00:23:32.372Z,47.92
2017-11-09T00:26:42.262Z,47.10
2017-11-09T00:29:53.262Z,47.33
2017-11-09T00:33:03.277Z,55.58
2017-11-09T00:36:13.264Z,47.97
2017-11-09T00:39:23.161Z,44.88
2017-11-09T00:42:33.188Z,41.53
2017-11-09T00:45:43.093Z,45.92
2017-11-09T00:48:53.961Z,53.20
2017-11-09T00:52:04.173Z,48.13
2017-11-09T00:55:13.943Z,47.53
2017-11-09T00:58:24.269Z,46.30
2017-11-09T01:01:34.045Z,40.60
2017-11-09T01:04:44.292Z,42.00
2017-11-09T01:07:54.696Z,46.25
2017-11-09T01:11:04.496Z,45.50
2017-11-09T01:14:15.298Z,53.87
2017-11-09T01:17:25.620Z,60.28
2017-11-09T01:20:36.040Z,42.47
2017-11-09T01:23:46.711Z,62.80
2017-11-09T01:26:56.909Z,65.15
2017-11-09T01:30:07.545Z,42.40
2017-11-09T01:33:18.046Z,49.17
2017-11-09T01:36:27.897Z,45.12
2017-11-09T01:39:37.865Z,44.75
2017-11-09T01:42:47.910Z,76.15
2017-11-09T01:45:58.334Z,61.67
2017-11-09T01:49:08.190Z,52.17
2017-11-09T01:52:18.245Z,52.65
2017-11-09T01:55:28.314Z,51.40
2017-11-09T01:58:38.391Z,58.47
2017-11-09T02:01:48.217Z,49.17
2017-11-09T02:04:58.810Z,47.60
2017-11-09T02:08:08.592Z,47.97
2017-11-09T02:11:18.542Z,53.97
2017-11-09T02:14:28.712Z,50.50
2017-11-09T02:17:38.729Z,56.83
2017-11-09T02:20:48.784Z,71.82
2017-11-09T02:23:58.744Z,60.60
2017-11-09T02:27:08.881Z,52.22
2017-11-09T02:30:18.704Z,46.88
2017-11-09T02:33:28.660Z,49.90
2017-11-09T02:36:38.711Z,49.78
2017-11-09T02:39:48.804Z,68.20
2017-11-09T02:42:59.389Z,46.72
2017-11-09T02:46:10.501Z,51.83
2017-11-09T02:49:20.869Z,55.88
2017-11-09T02:52:31.512Z,73.45
2017-11-09T02:55:41.257Z,66.62
2017-11-09T02:58:51.358Z,74.50
2017-11-09T03:02:02.357Z,102.85
2017-11-09T03:05:12.517Z,97.10
2017-11-09T03:08:23.386Z,81.97
2017-11-09T03:11:33.785Z,65.72
2017-11-09T03:14:43.749Z,87.37
2017-11-09T03:17:53.801Z,113.20
2017-11-09T03:21:04.625Z,73.55
2017-11-09T03:24:15.613Z,56.42
2017-11-09T03:27:25.833Z,142.37
2017-11-09T03:30:36.569Z,106.53
2017-11-09T03:33:47.005Z,84.37
2017-11-09T03:36:58.121Z,66.12
2017-11-09T03:40:08.499Z,71.40
2017-11-09T03:43:18.352Z,62.15
2017-11-09T03:46:28.256Z,76.85
2017-11-09T03:49:38.403Z,89.87
2017-11-09T03:52:49.097Z,89.47
2017-11-09T03:55:59.035Z,106.37
2017-11-09T03:59:09.689Z,115.72
2017-11-09T04:02:19.729Z,76.25
2017-11-09T04:05:30.283Z,83.70
2017-11-09T04:08:40.328Z,79.32
2017-11-09T04:11:50.337Z,125.72
2017-11-09T04:15:00.428Z,99.90
2017-11-09T04:18:10.295Z,89.15
2017-11-09T04:21:20.225Z,117.05
2017-11-09T04:24:31.287Z,136.62
2017-11-09T04:27:41.372Z,103.80
2017-11-09T04:30:51.183Z,72.97
2017-11-09T04:34:01.414Z,86.75
2017-11-09T04:37:12.353Z,104.63
2017-11-09T04:40:21.998Z,117.72
2017-11-09T04:43:32.133Z,183.68
2017-11-09T04:46:42.057Z,58.08
2017-11-09T04:49:52.835Z,118.13
2017-11-09T04:53:03.464Z,232.43
2017-11-09T04:56:13.760Z,82.00
2017-11-09T04:59:24.029Z,236.75
2017-11-09T05:02:34.091Z,202.68
2017-11-09T05:05:44.583Z,130.05
2017-11-09T05:08:54.605Z,61.40
2017-11-09T05:12:04.508Z,100.32
2017-11-09T05:15:14.669Z,117.53
2017-11-09T05:18:24.525Z,87.80
2017-11-09T05:21:34.769Z,112.80
2017-11-09T05:24:45.300Z,115.82
2017-11-09T05:27:56.564Z,146.62
2017-11-09T05:31:06.659Z,143.98
2017-11-09T05:34:16.432Z,171.48
2017-11-09T05:37:27.273Z,148.65
2017-11-09T05:40:37.056Z,158.00
2017-11-09T05:43:47.117Z,151.43
2017-11-09T05:46:57.347Z,139.48
2017-11-09T05:50:07.218Z,131.52
2017-11-09T05:53:17.280Z,92.55
2017-11-09T05:56:27.463Z,110.18
2017-11-09T05:59:38.889Z,96.35
2017-11-09T06:02:49.913Z,78.22
2017-11-09T06:06:00.560Z,104.95
2017-11-09T06:09:10.673Z,61.70
2017-11-09T06:12:21.202Z,105.90
2017-11-09T06:15:31.836Z,113.10
2017-11-09T06:18:41.983Z,67.78
2017-11-09T06:21:52.405Z,68.03
2017-11-09T06:25:03.929Z,99.95
2017-11-09T06:28:13.777Z,52.20
2017-11-09T06:31:24.132Z,48.70
2017-11-09T06:34:34.222Z,62.42
2017-11-09T06:37:44.718Z,52.17
2017-11-09T06:40:55.050Z,70.72
2017-11-09T06:44:05.056Z,61.92
2017-11-09T06:47:16.227Z,65.37
2017-11-09T06:50:26.536Z,66.37
2017-11-09T06:53:36.533Z,56.28
2017-11-09T06:56:46.480Z,67.32
2017-11-09T06:59:56.374Z,61.28
2017-11-09T07:03:06.135Z,64.15
2017-11-09T07:06:16.134Z,88.40
2017-11-09T07:09:26.164Z,72.47
2017-11-09T07:12:36.000Z,51.70
2017-11-09T07:15:46.133Z,33.90
2017-11-09T07:18:56.356Z,74.32
2017-11-09T07:22:06.565Z,87.75
2017-11-09T07:25:16.707Z,67.72
2017-11-09T07:28:27.432Z,72.45
2017-11-09T07:31:37.481Z,51.85
2017-11-09T07:34:47.453Z,57.20
2017-11-09T07:37:57.748Z,66.30
2017-11-09T07:41:07.884Z,63.63
2017-11-09T07:44:18.113Z,47.85
2017-11-09T07:47:28.700Z,44.22
2017-11-09T07:50:39.022Z,47.15
2017-11-09T07:53:49.688Z,62.65
2017-11-09T07:57:00.534Z,46.03
2017-11-09T08:00:10.819Z,47.78
2017-11-09T08:03:20.881Z,64.15
2017-11-09T08:06:31.267Z,50.00
2017-11-09T08:09:41.214Z,46.70
2017-11-09T08:12:51.363Z,65.05
2017-11-09T08:16:01.132Z,88.15
2017-11-09T08:19:10.860Z,84.18
2017-11-09T08:22:21.795Z,52.15
2017-11-09T08:25:35.024Z,52.78
2017-11-09T08:28:47.149Z,84.75
2017-11-09T08:32:02.027Z,58.25
2017-11-09T08:35:13.196Z,66.78
2017-11-09T08:38:23.184Z,61.78
2017-11-09T08:41:34.073Z,78.82
2017-11-09T08:44:44.803Z,62.95
2017-11-09T08:47:55.121Z,59.78
2017-11-09T08:51:05.896Z,56.20
2017-11-09T08:54:16.099Z,69.28
2017-11-09T08:57:26.860Z,85.75
2017-11-09T09:00:37.222Z,84.72
2017-11-09T09:03:47.182Z,55.28
2017-11-09T09:06:57.150Z,50.00
2017-11-09T09:10:06.967Z,57.08
2017-11-09T09:13:16.771Z,66.93
2017-11-09T09:16:27.176Z,40.30
2017-11-09T09:19:37.934Z,45.20
2017-11-09T09:23:02.471Z,57.17
2017-11-09T09:26:17.785Z,42.03
2017-11-09T09:29:32.317Z,39.08
2017-11-09T09:32:46.961Z,54.13
2017-11-09T09:39:46.009Z,54.70
2017-11-09T09:42:56.141Z,63.30
2017-11-09T09:46:06.655Z,35.17
2017-11-09T09:49:17.416Z,49.08
2017-11-09T09:52:27.934Z,47.17
2017-11-09T09:55:38.217Z,25.08
2017-11-09T09:58:48.384Z,36.92
2017-11-09T10:01:59.132Z,39.15
2017-11-09T10:05:10.066Z,30.25
2017-11-09T10:08:20.572Z,35.80
2017-11-09T10:11:30.641Z,52.90
2017-11-09T10:14:41.381Z,28.05
2017-11-09T10:17:51.255Z,32.53
2017-11-09T10:21:01.287Z,25.17
2017-11-09T10:24:11.921Z,22.85
2017-11-09T10:27:23.120Z,27.42
2017-11-09T10:30:34.248Z,29.67
2017-11-09T10:33:44.510Z,30.58
2017-11-09T10:36:55.444Z,27.10
2017-11-09T10:40:06.354Z,29.83
2017-11-09T10:43:16.338Z,28.87
2017-11-09T10:46:26.320Z,28.80
2017-11-09T10:49:36.373Z,29.35
2017-11-09T10:52:46.380Z,28.33
2017-11-09T10:55:56.408Z,20.77
2017-11-09T10:59:06.589Z,24.08
2017-11-09T11:02:17.577Z,24.10
2017-11-09T11:05:27.155Z,19.80
2017-11-09T11:08:37.803Z,23.70
2017-11-09T11:11:47.358Z,24.15
2017-11-09T11:14:57.243Z,19.73
2017-11-09T11:18:07.637Z,20.25
2017-11-09T11:21:18.033Z,20.45
2017-11-09T11:24:29.433Z,23.67
2017-11-09T11:27:39.988Z,24.48
2017-11-09T11:30:50.661Z,21.35
2017-11-09T11:34:00.530Z,22.58
2017-11-09T11:37:14.806Z,24.70
2017-11-09T11:40:25.385Z,22.05
2017-11-09T11:43:35.354Z,23.83
2017-11-09T11:46:45.255Z,21.23
2017-11-09T11:49:56.137Z,32.45
2017-11-09T11:53:06.078Z,26.52
2017-11-09T11:56:16.074Z,23.25
2017-11-09T11:59:25.880Z,27.80
2017-11-09T12:02:36.265Z,22.80
2017-11-09T12:05:46.364Z,24.30
2017-11-09T12:08:56.222Z,15.70
2017-11-09T12:12:07.362Z,32.05
2017-11-09T12:15:17.382Z,23.52
2017-11-09T12:18:27.757Z,25.08
2017-11-09T12:21:37.787Z,26.25
2017-11-09T12:24:47.977Z,19.35
2017-11-09T12:27:58.289Z,23.73
2017-11-09T12:31:08.861Z,21.10
2017-11-09T12:34:18.880Z,25.05
2017-11-09T12:37:29.013Z,25.05
2017-11-09T12:40:39.746Z,22.45
2017-11-09T12:43:50.377Z,32.05
2017-11-09T12:47:00.517Z,25.98
2017-11-09T12:50:10.873Z,26.48
2017-11-09T12:53:21.184Z,24.15
2017-11-09T12:56:31.529Z,22.25
2017-11-09T12:59:41.710Z,29.35
2017-11-09T13:02:51.769Z,29.65
2017-11-09T13:06:02.479Z,19.95
2017-11-09T13:09:12.610Z,20.85
2017-11-09T13:12:23.478Z,22.60
2017-11-09T13:15:33.584Z,28.95
2017-11-09T13:18:43.218Z,18.23
2017-11-09T13:21:53.093Z,24.60
2017-11-09T13:25:03.496Z,24.55
2017-11-09T13:28:13.532Z,25.00
2017-11-09T13:31:24.649Z,33.30
2017-11-09T13:34:37.961Z,27.35
2017-11-09T13:37:48.648Z,18.62
2017-11-09T13:40:58.743Z,25.08
2017-11-09T13:44:09.062Z,26.77
2017-11-09T13:47:19.393Z,23.52
2017-11-09T13:50:31.069Z,25.92
2017-11-09T13:53:42.446Z,21.33
2017-11-09T13:56:53.323Z,28.10
2017-11-09T14:00:05.583Z,32.40
2017-11-09T14:03:17.402Z,25.60
2017-11-09T14:06:28.751Z,31.60
2017-11-09T14:09:39.119Z,26.65
2017-11-09T14:12:48.942Z,28.70
2017-11-09T14:15:59.383Z,18.62
2017-11-09T14:19:09.986Z,30.67
2017-11-09T14:22:20.643Z,24.50
2017-11-09T14:25:31.504Z,42.50
2017-11-09T14:28:41.660Z,25.25
2017-11-09T14:31:51.419Z,25.70
2017-11-09T14:35:02.245Z,24.23
2017-11-09T14:38:12.575Z,26.95
2017-11-09T14:41:23.244Z,25.12
2017-11-09T14:44:33.245Z,34.10
2017-11-09T14:47:43.651Z,24.30
2017-11-09T14:50:54.010Z,31.15
2017-11-09T14:54:04.406Z,28.73
2017-11-09T14:57:14.482Z,25.30
2017-11-09T15:00:24.519Z,40.67
2017-11-09T15:03:34.493Z,28.92
2017-11-09T15:06:44.579Z,40.03
2017-11-09T15:09:55.040Z,44.97
2017-11-09T15:13:05.160Z,43.45
2017-11-09T15:16:15.156Z,50.17
2017-11-09T15:19:25.466Z,39.22
2017-11-09T15:22:35.116Z,45.85
2017-11-09T15:25:45.269Z,29.58
2017-11-09T15:28:56.368Z,28.55
2017-11-09T15:32:11.552Z,36.10
2017-11-09T15:35:22.148Z,31.30
2017-11-09T15:38:32.843Z,40.42
2017-11-09T15:41:42.722Z,30.90
2017-11-09T15:44:52.576Z,39.72
2017-11-09T15:48:02.785Z,40.33
2017-11-09T15:51:13.260Z,80.90
2017-11-09T15:54:23.866Z,49.97
2017-11-09T15:57:34.087Z,66.82
2017-11-09T16:00:44.696Z,37.63
2017-11-09T16:03:55.578Z,34.33
2017-11-09T16:07:11.244Z,35.08
2017-11-09T16:10:21.755Z,34.35
2017-11-09T16:13:32.325Z,34.00
2017-11-09T16:16:42.536Z,37.58
2017-11-09T16:19:52.282Z,41.30
2017-11-09T16:23:02.947Z,37.20
2017-11-09T16:26:13.039Z,42.78
2017-11-09T16:29:23.677Z,51.20
2017-11-09T16:32:33.576Z,34.47
2017-11-09T16:35:43.485Z,33.28
2017-11-09T16:38:53.511Z,40.30
2017-11-09T16:42:04.009Z,41.28
2017-11-09T16:45:13.557Z,39.20
2017-11-09T16:48:23.968Z,43.40
2017-11-09T16:51:34.106Z,43.10
2017-11-09T16:54:44.164Z,35.00
2017-11-09T16:57:54.137Z,26.23
2017-11-09T17:01:04.377Z,40.05
2017-11-09T17:04:15.877Z,36.53
2017-11-09T17:07:26.109Z,38.72
2017-11-09T17:10:37.013Z,42.42
2017-11-09T17:13:48.258Z,41.00
2017-11-09T17:16:59.114Z,32.40
2017-11-09T17:20:09.041Z,40.67
2017-11-09T17:23:18.850Z,45.72
2017-11-09T17:26:29.380Z,41.72
2017-11-09T17:29:39.696Z,36.03
2017-11-09T17:32:50.368Z,39.75
2017-11-09T17:36:00.185Z,38.58
2017-11-09T17:39:10.365Z,40.90
2017-11-09T17:42:20.496Z,33.00
2017-11-09T17:45:30.697Z,37.10
2017-11-09T17:48:40.677Z,46.80
2017-11-09T17:51:50.879Z,44.53
2017-11-09T17:55:00.919Z,37.05
2017-11-09T17:58:10.833Z,39.00
2017-11-09T18:01:21.040Z,38.42
2017-11-09T18:04:30.995Z,39.35
2017-11-09T18:07:41.018Z,40.03
2017-11-09T18:10:51.258Z,38.95
2017-11-09T18:14:01.176Z,39.17
2017-11-09T18:17:11.360Z,51.37
2017-11-09T18:20:21.548Z,42.58
2017-11-09T18:23:31.666Z,54.03
2017-11-09T18:26:42.217Z,41.88
2017-11-09T18:29:52.716Z,45.38
2017-11-09T18:33:03.077Z,33.90
2017-11-09T18:36:13.445Z,49.65
2017-11-09T18:39:23.325Z,108.80
2017-11-09T18:42:34.427Z,87.18
2017-11-09T18:45:44.876Z,48.67
2017-11-09T18:48:55.079Z,43.15
2017-11-09T18:52:05.339Z,50.30
2017-11-09T18:55:15.535Z,60.92
2017-11-09T18:58:25.754Z,52.40
2017-11-09T19:01:35.740Z,53.00
2017-11-09T19:04:46.097Z,57.67
2017-11-09T19:07:56.172Z,51.00
2017-11-09T19:11:06.467Z,48.22
2017-11-09T19:14:16.741Z,54.15
2017-11-09T19:17:27.650Z,50.65
2017-11-09T19:20:37.968Z,43.65
2017-11-09T19:23:47.877Z,52.53
2017-11-09T19:26:58.116Z,48.53
2017-11-09T19:30:08.200Z,63.90
2017-11-09T19:33:17.863Z,74.82
2017-11-09T19:36:28.331Z,73.68
2017-11-09T19:39:39.658Z,52.20
2017-11-09T19:42:49.587Z,44.78
2017-11-09T19:46:00.026Z,35.53
2017-11-09T19:49:10.877Z,86.30
2017-11-09T19:52:20.958Z,87.22
2017-11-09T19:55:30.941Z,36.63
2017-11-09T19:58:40.979Z,37.72
2017-11-09T20:01:51.817Z,49.13
2017-11-09T20:05:02.250Z,41.10
2017-11-09T20:08:12.851Z,53.80
2017-11-09T20:11:22.983Z,48.30
2017-11-09T20:14:33.018Z,177.98
2017-11-09T20:17:43.164Z,46.35
2017-11-09T20:20:53.432Z,114.88
2017-11-09T20:24:03.633Z,94.60
2017-11-09T20:27:13.468Z,106.80
2017-11-09T20:30:24.588Z,40.25
2017-11-09T20:33:34.314Z,41.13
2017-11-09T20:36:44.121Z,51.80
2017-11-09T20:39:54.112Z,54.42
2017-11-09T20:43:03.968Z,38.60
2017-11-09T20:46:14.077Z,43.45
2017-11-09T20:49:24.397Z,40.00
2017-11-09T20:52:34.921Z,33.85
2017-11-09T20:55:44.852Z,17.05
2017-11-09T20:58:55.942Z,33.55
2017-11-09T21:02:07.113Z,36.97
2017-11-09T21:05:17.597Z,39.50
2017-11-09T21:08:27.891Z,41.15
2017-11-09T21:11:38.037Z,49.65
2017-11-09T21:14:47.953Z,41.37
2017-11-09T21:17:57.760Z,42.25
2017-11-09T21:21:07.627Z,31.67
2017-11-09T21:24:18.139Z,28.40
2017-11-09T21:27:28.300Z,31.67
2017-11-09T21:30:38.358Z,36.42
2017-11-09T21:33:49.096Z,45.25
2017-11-09T21:36:59.339Z,46.30
2017-11-09T21:40:09.518Z,52.10
2017-11-09T21:43:19.899Z,33.20
2017-11-09T21:46:30.349Z,41.58
2017-11-09T21:49:40.215Z,34.58
2017-11-09T21:52:50.294Z,46.55
2017-11-09T21:56:00.685Z,39.85
2017-11-09T21:59:11.127Z,45.30
2017-11-09T22:02:21.616Z,34.55
2017-11-09T22:05:31.795Z,43.03
2017-11-09T22:08:42.069Z,42.62
2017-11-09T22:11:52.759Z,28.52
2017-11-09T22:15:02.582Z,34.05
2017-11-09T22:18:12.644Z,45.75
2017-11-09T22:21:22.592Z,31.55
2017-11-09T22:24:35.683Z,30.98
2017-11-09T22:27:46.006Z,36.05
2017-11-09T22:30:57.283Z,38.45
2017-11-09T22:34:09.010Z,27.90
2017-11-09T22:37:19.738Z,48.20
2017-11-09T22:40:30.681Z,29.17
2017-11-09T22:43:41.355Z,29.02
2017-11-09T22:46:51.515Z,47.40
2017-11-09T22:50:01.976Z,29.58
2017-11-09T22:53:11.874Z,34.20
2017-11-09T22:56:22.000Z,42.97
2017-11-09T22:59:32.317Z,31.50
2017-11-09T23:02:45.983Z,34.53
2017-11-09T23:05:57.246Z,33.28
2017-11-09T23:09:08.127Z,36.88
2017-11-09T23:12:18.735Z,30.17
2017-11-09T23:15:29.853Z,30.73
2017-11-09T23:18:40.196Z,30.62
2017-11-09T23:21:51.243Z,38.72
2017-11-09T23:25:01.860Z,24.45
2017-11-09T23:28:11.948Z,16.58
2017-11-09T23:31:21.800Z,43.17
2017-11-09T23:34:32.625Z,31.90
2017-11-09T23:37:42.760Z,38.63
2017-11-09T23:40:52.842Z,24.58
2017-11-09T23:44:02.796Z,30.70
2017-11-09T23:47:13.032Z,37.08
2017-11-09T23:50:22.944Z,35.45
2017-11-09T23:53:33.874Z,34.47
2017-11-09T23:56:44.712Z,34.80
2017-11-09T23:59:55.985Z,33.22
